Time;durP1;ratioP1;P1;durP2;ratioP2;P2;SDS_P1;SDS_P2;PMS_P1;PMS_P2;Temp;Humidity;BMP_temperature;BMP_pressure;BME280_temperature;BME280_humidity;BME280_pressure;Samples;Min_cycle;Max_cycle;Signal;HPM_P1;HPM_P2
2021/11/22 00:01:48;;;;;;;3.25;1.00;;;-4.80;99.90;;;;;;5113735;28;20019;-68
2021/11/22 00:04:14;;;;;;;1.25;1.15;;;-4.80;99.90;;;;;;5113674;28;20032;-69
2021/11/22 00:06:40;;;;;;;1.05;1.00;;;-4.80;99.90;;;;;;5113584;28;20058;-69
2021/11/22 00:09:06;;;;;;;1.73;1.00;;;-4.70;99.90;;;;;;5114049;28;20059;-68
2021/11/22 00:11:32;;;;;;;1.20;1.10;;;-4.70;99.90;;;;;;5113800;28;20023;-68
2021/11/22 00:13:58;;;;;;;1.95;1.05;;;-4.70;99.90;;;;;;5113827;28;20051;-68
2021/11/22 00:16:24;;;;;;;2.33;1.13;;;-4.70;99.90;;;;;;5113461;28;20454;-68
2021/11/22 00:18:50;;;;;;;1.70;1.30;;;-4.70;99.90;;;;;;5113232;28;20112;-68
2021/11/22 00:21:16;;;;;;;1.75;1.00;;;-4.70;99.90;;;;;;5113602;28;20031;-69
2021/11/22 00:23:42;;;;;;;1.85;1.15;;;-4.80;99.90;;;;;;5112168;28;20352;-68
2021/11/22 00:26:07;;;;;;;1.52;1.08;;;-4.80;99.90;;;;;;5112927;28;20494;-69
2021/11/22 00:28:33;;;;;;;0.90;0.90;;;-4.90;99.90;;;;;;5113644;28;20020;-66
2021/11/22 00:30:59;;;;;;;1.80;0.93;;;-4.90;99.90;;;;;;5112625;28;20507;-66
2021/11/22 00:33:24;;;;;;;2.13;1.00;;;-4.90;99.90;;;;;;5112664;28;20026;-65
2021/11/22 00:35:50;;;;;;;2.90;1.10;;;-5.00;99.90;;;;;;5113068;28;20028;-65
2021/11/22 00:38:17;;;;;;;2.83;1.13;;;-5.00;99.90;;;;;;5113381;28;20027;-65
2021/11/22 00:40:43;;;;;;;1.15;1.10;;;-5.00;99.90;;;;;;5112929;28;20023;-65
2021/11/22 00:43:10;;;;;;;3.35;1.20;;;-5.00;99.90;;;;;;5113108;28;20024;-65
2021/11/22 00:45:36;;;;;;;3.85;1.42;;;-5.00;99.90;;;;;;5112791;28;20035;-65
2021/11/22 00:48:03;;;;;;;4.68;1.33;;;-5.00;99.90;;;;;;5112572;28;20045;-65
2021/11/22 00:50:30;;;;;;;3.88;1.25;;;-5.10;99.90;;;;;;5112738;28;20024;-65
2021/11/22 00:52:56;;;;;;;2.60;1.20;;;-5.00;99.90;;;;;;5113007;28;20015;-65
2021/11/22 00:55:23;;;;;;;1.20;1.10;;;-5.10;99.90;;;;;;5112592;28;20281;-65
2021/11/22 00:57:49;;;;;;;1.20;1.17;;;-5.10;99.90;;;;;;5112673;27;20476;-65
2021/11/22 01:00:17;;;;;;;2.17;1.10;;;-5.10;99.90;;;;;;5112807;28;20417;-66
2021/11/22 01:02:43;;;;;;;3.08;1.23;;;-5.20;99.90;;;;;;5111753;28;20032;-66
2021/11/22 01:05:09;;;;;;;3.95;1.15;;;-5.20;99.90;;;;;;5105993;28;20012;-67
2021/11/22 01:07:35;;;;;;;2.97;1.00;;;-5.20;99.90;;;;;;5103529;28;20134;-68
2021/11/22 01:10:03;;;;;;;3.10;1.20;;;-5.10;99.90;;;;;;5112321;28;20094;-67
2021/11/22 01:12:29;;;;;;;3.70;1.52;;;-5.20;99.90;;;;;;5112506;28;20432;-66
2021/11/22 01:14:59;;;;;;;1.95;1.60;;;-5.20;99.90;;;;;;5112221;28;20098;-66
2021/11/22 01:17:25;;;;;;;3.45;1.40;;;-5.20;99.90;;;;;;5112892;28;20027;-66
2021/11/22 01:19:53;;;;;;;1.63;1.30;;;-5.20;99.90;;;;;;5112046;28;20065;-66
2021/11/22 01:22:24;;;;;;;2.72;1.38;;;-5.20;99.90;;;;;;5110843;28;20110;-65
2021/11/22 01:24:50;;;;;;;1.13;1.00;;;-5.20;99.90;;;;;;5112488;28;20060;-66
2021/11/22 01:27:16;;;;;;;1.02;1.00;;;-5.20;99.90;;;;;;5111947;28;20031;-66
2021/11/22 01:29:42;;;;;;;1.80;1.20;;;-5.20;99.90;;;;;;5112397;28;20156;-66
2021/11/22 01:32:08;;;;;;;1.83;1.08;;;-5.30;99.90;;;;;;5112041;28;20486;-66
2021/11/22 01:34:35;;;;;;;2.95;1.17;;;-5.30;99.90;;;;;;5111868;28;20478;-66
2021/11/22 01:37:00;;;;;;;1.40;1.20;;;-5.40;99.90;;;;;;5112432;28;20027;-66
2021/11/22 01:39:26;;;;;;;1.30;1.20;;;-5.40;99.90;;;;;;5112223;28;20027;-67
2021/11/22 01:41:52;;;;;;;2.88;1.38;;;-5.40;99.90;;;;;;5112159;28;20081;-66
2021/11/22 01:44:18;;;;;;;2.20;1.33;;;-5.40;99.90;;;;;;5111727;28;20024;-66
2021/11/22 01:46:46;;;;;;;1.85;1.15;;;-5.30;99.90;;;;;;5112006;28;20051;-66
2021/11/22 01:49:12;;;;;;;1.48;1.35;;;-5.30;99.90;;;;;;5111902;28;20027;-67
2021/11/22 01:51:38;;;;;;;2.75;1.10;;;-5.30;99.90;;;;;;5111883;28;20065;-67
2021/11/22 01:54:03;;;;;;;1.50;1.40;;;-5.30;99.90;;;;;;5111734;28;20106;-67
2021/11/22 01:56:29;;;;;;;3.28;1.33;;;-5.30;99.90;;;;;;5111514;28;20063;-67
2021/11/22 01:58:55;;;;;;;3.50;1.20;;;-5.30;99.90;;;;;;5111857;28;20020;-67
2021/11/22 02:01:21;;;;;;;2.10;1.20;;;-5.30;99.90;;;;;;5111779;28;20490;-67
2021/11/22 02:03:47;;;;;;;3.22;1.42;;;-5.30;99.90;;;;;;5112050;28;20055;-66
2021/11/22 02:06:13;;;;;;;2.00;1.27;;;-5.40;99.90;;;;;;5111556;28;20415;-67
2021/11/22 02:08:39;;;;;;;1.33;1.17;;;-5.40;99.90;;;;;;5111886;28;20094;-67
2021/11/22 02:11:05;;;;;;;1.73;1.40;;;-5.40;99.90;;;;;;5111583;28;20123;-67
2021/11/22 02:13:31;;;;;;;4.25;1.20;;;-5.40;99.90;;;;;;5110319;28;20012;-67
2021/11/22 02:15:57;;;;;;;1.80;1.30;;;-5.40;99.90;;;;;;5111531;28;20055;-68
2021/11/22 02:18:23;;;;;;;1.75;1.15;;;-5.40;99.90;;;;;;5111562;28;20047;-68
2021/11/22 02:20:49;;;;;;;2.25;1.30;;;-5.50;99.90;;;;;;5111536;28;20092;-68
2021/11/22 02:23:15;;;;;;;1.45;1.20;;;-5.40;99.90;;;;;;5111619;28;20061;-67
2021/11/22 02:54:46;;;;;;;4.25;1.33;;;-5.50;99.90;;;;;;5111478;28;20032;-66
2021/11/22 02:57:13;;;;;;;6.25;1.30;;;-5.50;99.90;;;;;;5114678;28;20130;-66
2021/11/22 02:59:40;;;;;;;4.13;1.33;;;-5.50;99.90;;;;;;5115203;28;20027;-66
2021/11/22 03:02:13;;;;;;;3.13;1.23;;;-5.50;99.90;;;;;;5113318;28;20081;-66
2021/11/22 03:04:42;;;;;;;5.25;1.10;;;-5.50;99.90;;;;;;5109708;28;20050;-66
2021/11/22 03:07:09;;;;;;;3.38;1.20;;;-5.60;99.90;;;;;;5114835;28;20043;-66
2021/11/22 03:09:36;;;;;;;2.10;1.02;;;-5.60;99.90;;;;;;5106000;28;20361;-66
2021/11/22 03:12:05;;;;;;;2.58;1.10;;;-5.60;99.90;;;;;;5109554;28;20027;-67
2021/11/22 03:14:32;;;;;;;1.15;1.02;;;-5.60;99.90;;;;;;5114830;28;20027;-67
2021/11/22 03:16:58;;;;;;;1.20;1.13;;;-5.70;99.90;;;;;;5113382;28;20432;-67
2021/11/22 03:19:24;;;;;;;2.75;1.38;;;-5.70;99.90;;;;;;5114760;28;20027;-67
2021/11/22 03:21:51;;;;;;;3.42;1.30;;;-5.70;99.90;;;;;;5114379;28;20020;-67
2021/11/22 03:24:17;;;;;;;4.22;1.50;;;-5.70;99.90;;;;;;5114408;28;20032;-67
2021/11/22 03:26:42;;;;;;;1.35;1.25;;;-5.80;99.90;;;;;;5111894;28;20032;-67
2021/11/22 03:29:09;;;;;;;3.40;1.25;;;-5.80;99.90;;;;;;5102428;28;20023;-66
2021/11/22 03:31:36;;;;;;;1.20;1.10;;;-5.80;99.90;;;;;;5114171;28;20157;-67
2021/11/22 03:34:04;;;;;;;1.45;1.25;;;-5.80;99.90;;;;;;5114576;28;20054;-66
2021/11/22 03:36:31;;;;;;;1.33;1.23;;;-5.80;99.90;;;;;;5101304;28;20080;-66
2021/11/22 03:38:58;;;;;;;4.15;1.35;;;-5.70;99.90;;;;;;5107494;28;20482;-66
2021/11/22 03:41:25;;;;;;;2.60;1.30;;;-5.70;99.90;;;;;;5104607;28;20027;-66
2021/11/22 03:43:57;;;;;;;1.30;1.20;;;-5.70;99.90;;;;;;5114120;28;20031;-66
2021/11/22 03:46:23;;;;;;;4.47;1.20;;;-5.70;99.90;;;;;;5113750;28;20068;-66
2021/11/22 03:48:49;;;;;;;1.20;1.10;;;-5.70;99.90;;;;;;5113877;28;20050;-66
2021/11/22 03:51:17;;;;;;;2.80;1.35;;;-5.70;99.90;;;;;;5112452;28;20119;-67
2021/11/22 03:53:43;;;;;;;1.40;1.30;;;-5.80;99.90;;;;;;5114106;28;20113;-67
2021/11/22 03:56:09;;;;;;;7.18;1.30;;;-5.80;99.90;;;;;;5113635;28;20127;-67
2021/11/22 03:58:35;;;;;;;2.25;1.33;;;-5.70;99.90;;;;;;5113970;28;20102;-66
2021/11/22 04:01:02;;;;;;;5.13;1.55;;;-5.80;99.90;;;;;;5113830;28;20386;-66
2021/11/22 04:03:29;;;;;;;1.38;1.27;;;-5.80;99.90;;;;;;5113609;28;20084;-66
2021/11/22 04:05:55;;;;;;;2.70;1.33;;;-5.70;99.90;;;;;;5113541;28;20036;-66
2021/11/22 04:08:20;;;;;;;2.10;1.20;;;-5.80;99.90;;;;;;5113575;28;20027;-66
2021/11/22 04:10:46;;;;;;;2.72;1.38;;;-5.80;99.90;;;;;;5113417;28;20030;-66
2021/11/22 04:13:12;;;;;;;2.40;1.40;;;-5.70;99.90;;;;;;5113466;27;20015;-66
2021/11/22 04:15:38;;;;;;;3.00;1.30;;;-5.70;99.90;;;;;;5113633;28;20019;-66
2021/11/22 04:18:05;;;;;;;2.53;1.20;;;-5.70;99.90;;;;;;5113451;28;20030;-66
2021/11/22 04:20:31;;;;;;;3.70;1.52;;;-5.70;99.90;;;;;;5103358;28;20636;-66
2021/11/22 04:22:58;;;;;;;2.67;1.42;;;-5.70;99.90;;;;;;5109040;28;20600;-66
2021/11/22 04:25:24;;;;;;;2.38;1.20;;;-5.70;99.90;;;;;;5113036;28;20110;-66
2021/11/22 04:27:50;;;;;;;3.00;1.25;;;-5.60;99.90;;;;;;5113603;28;20028;-66
2021/11/22 04:30:16;;;;;;;4.25;1.35;;;-5.60;99.90;;;;;;5099271;28;20080;-66
2021/11/22 04:32:42;;;;;;;3.33;1.23;;;-5.60;99.90;;;;;;5113468;28;20479;-66
2021/11/22 04:35:12;;;;;;;1.30;1.20;;;-5.60;99.90;;;;;;5113099;28;20112;-66
2021/11/22 04:37:38;;;;;;;3.58;1.50;;;-5.60;99.90;;;;;;5113486;28;20028;-66
2021/11/22 04:40:08;;;;;;;7.55;1.60;;;-5.60;99.90;;;;;;5112970;28;20486;-66
2021/11/22 04:42:33;;;;;;;4.40;1.33;;;-5.60;99.90;;;;;;5112870;28;20391;-66
2021/11/22 04:45:00;;;;;;;4.63;1.42;;;-5.60;99.90;;;;;;5112827;28;20023;-66
2021/11/22 04:47:26;;;;;;;4.07;1.52;;;-5.60;99.90;;;;;;5112773;28;20092;-66
2021/11/22 04:49:53;;;;;;;5.63;1.33;;;-5.50;99.90;;;;;;5113173;28;20467;-66
2021/11/22 04:52:20;;;;;;;2.17;1.30;;;-5.50;99.90;;;;;;5112682;28;20072;-66
2021/11/22 04:54:46;;;;;;;3.05;1.33;;;-5.50;99.90;;;;;;5112719;28;20016;-66
2021/11/22 04:57:13;;;;;;;5.80;1.58;;;-5.40;99.90;;;;;;5112187;28;20047;-67
2021/11/22 04:59:40;;;;;;;1.95;1.40;;;-5.40;99.90;;;;;;5112615;28;20028;-66
2021/11/22 05:02:07;;;;;;;2.78;1.40;;;-5.40;99.90;;;;;;5112759;27;20065;-66
2021/11/22 05:04:35;;;;;;;2.95;1.20;;;-5.40;99.90;;;;;;5112696;28;20392;-66
2021/11/22 05:07:01;;;;;;;3.15;1.10;;;-5.40;99.90;;;;;;5112591;28;20036;-66
2021/11/22 05:09:26;;;;;;;1.83;1.27;;;-5.40;99.90;;;;;;5112780;28;20023;-66
2021/11/22 05:11:52;;;;;;;1.88;1.33;;;-5.40;99.90;;;;;;5112399;28;20394;-65
2021/11/22 05:14:18;;;;;;;6.80;1.50;;;-5.40;99.90;;;;;;5112178;28;20056;-66
2021/11/22 05:16:44;;;;;;;3.47;1.30;;;-5.40;99.90;;;;;;5112490;28;20068;-67
2021/11/22 05:19:12;;;;;;;3.75;1.48;;;-5.40;99.90;;;;;;5111911;28;20372;-67
2021/11/22 05:21:38;;;;;;;2.72;1.23;;;-5.40;99.90;;;;;;5112102;28;20023;-68
2021/11/22 05:24:05;;;;;;;3.17;1.40;;;-5.40;99.90;;;;;;5110916;28;20028;-67
2021/11/22 05:26:31;;;;;;;5.03;1.52;;;-5.40;99.90;;;;;;5111907;28;20119;-67
2021/11/22 05:28:58;;;;;;;3.83;1.30;;;-5.40;99.90;;;;;;5112140;28;20019;-67
2021/11/22 05:31:24;;;;;;;2.50;1.40;;;-5.40;99.90;;;;;;5112146;28;20051;-66
2021/11/22 05:33:51;;;;;;;1.85;1.13;;;-5.40;99.90;;;;;;5112036;28;20467;-66
2021/11/22 05:36:17;;;;;;;3.67;1.25;;;-5.50;99.90;;;;;;5111982;28;20019;-67
2021/11/22 05:38:44;;;;;;;1.23;1.15;;;-5.50;99.90;;;;;;5110587;28;20016;-67
2021/11/22 05:41:10;;;;;;;1.23;1.13;;;-5.10;99.90;;;;;;5112123;28;20027;-63
2021/11/22 05:43:37;;;;;;;1.80;1.20;;;-0.40;99.90;;;;;;5111310;28;20520;-65
2021/11/22 05:46:07;;;;;;;3.10;1.10;;;0.60;99.90;;;;;;5108439;28;20023;-66
2021/11/22 05:48:33;;;;;;;3.83;1.00;;;-0.60;99.90;;;;;;5106513;28;20039;-66
2021/11/22 05:51:00;;;;;;;4.65;1.20;;;-1.70;99.90;;;;;;5092602;28;20107;-67
2021/11/22 05:53:32;;;;;;;1.63;1.00;;;-2.50;99.90;;;;;;5092880;28;20076;-66
2021/11/22 05:55:59;;;;;;;2.60;1.02;;;-3.10;99.90;;;;;;5101104;28;20036;-67
2021/11/22 05:58:25;;;;;;;2.67;0.90;;;-3.60;99.90;;;;;;5095999;28;20028;-66
2021/11/22 06:00:51;;;;;;;2.08;1.08;;;-3.80;99.90;;;;;;5094038;28;20036;-67
2021/11/22 06:03:16;;;;;;;1.27;0.90;;;-4.10;99.90;;;;;;5093709;28;20035;-67
2021/11/22 06:05:42;;;;;;;2.40;1.00;;;-4.30;99.90;;;;;;5095629;28;20336;-65
2021/11/22 06:08:08;;;;;;;2.80;1.30;;;-4.50;99.90;;;;;;5092368;28;20020;-66
2021/11/22 06:10:35;;;;;;;3.53;1.20;;;-4.60;99.90;;;;;;5092631;28;20080;-66
2021/11/22 06:13:00;;;;;;;3.40;1.33;;;-4.70;99.90;;;;;;5095155;28;20048;-63
2021/11/22 06:15:26;;;;;;;1.20;0.95;;;-4.80;99.90;;;;;;5093790;28;20036;-66
2021/11/22 06:17:52;;;;;;;4.03;1.00;;;-4.90;99.90;;;;;;5096230;28;20617;-65
2021/11/22 06:20:19;;;;;;;1.20;1.10;;;-5.00;99.90;;;;;;5099640;28;20115;-65
2021/11/22 06:22:45;;;;;;;1.98;1.25;;;-5.10;99.90;;;;;;5111611;28;20483;-65
2021/11/22 06:25:11;;;;;;;1.67;1.17;;;-5.10;99.90;;;;;;5111373;28;20165;-65
2021/11/22 06:27:37;;;;;;;1.27;1.17;;;-4.90;99.90;;;;;;5111658;28;20032;-65
2021/11/22 06:30:06;;;;;;;2.97;1.35;;;-5.00;99.90;;;;;;5109271;28;20486;-65
2021/11/22 06:32:32;;;;;;;4.70;1.38;;;-5.10;99.90;;;;;;5106173;28;20531;-65
2021/11/22 06:34:58;;;;;;;1.63;1.08;;;-5.20;99.90;;;;;;5105882;28;20024;-65
2021/11/22 06:37:26;;;;;;;2.53;1.27;;;-5.40;99.90;;;;;;5108276;28;20028;-65
2021/11/22 06:39:53;;;;;;;1.42;1.20;;;-5.50;99.90;;;;;;5115536;28;20032;-65
2021/11/22 06:42:20;;;;;;;3.75;1.20;;;-5.60;99.90;;;;;;5115461;28;20065;-65
2021/11/22 06:44:47;;;;;;;2.70;1.52;;;-5.60;99.90;;;;;;5115493;28;20028;-65
2021/11/22 06:47:13;;;;;;;4.20;1.75;;;-5.60;99.90;;;;;;5108485;28;20110;-65
2021/11/22 06:49:39;;;;;;;2.95;1.52;;;-5.60;99.90;;;;;;5114785;28;20102;-65
2021/11/22 06:52:05;;;;;;;2.45;1.90;;;-5.60;99.90;;;;;;5114868;28;20091;-65
2021/11/22 06:54:31;;;;;;;4.25;1.90;;;-5.70;99.90;;;;;;5108068;28;20054;-65
2021/11/22 06:56:57;;;;;;;2.90;2.25;;;-5.70;99.90;;;;;;5106319;28;20083;-65
2021/11/22 06:59:23;;;;;;;8.35;3.10;;;-5.70;99.90;;;;;;5109907;28;20425;-64
2021/11/22 07:01:49;;;;;;;7.90;4.07;;;-5.60;99.90;;;;;;5113679;28;20475;-64
2021/11/22 07:04:15;;;;;;;10.77;4.40;;;-5.70;99.90;;;;;;5114731;28;20059;-65
2021/11/22 07:06:41;;;;;;;16.50;5.45;;;-5.70;99.90;;;;;;5113219;28;20066;-64
2021/11/22 07:09:08;;;;;;;2.65;1.67;;;-5.60;99.90;;;;;;5110819;28;20052;-63
2021/11/22 07:11:34;;;;;;;3.53;1.63;;;-5.10;99.90;;;;;;5105027;28;20035;-64
2021/11/22 07:14:02;;;;;;;2.70;1.30;;;-5.00;99.90;;;;;;5096693;28;20031;-66
2021/11/22 07:16:28;;;;;;;2.67;1.17;;;-5.10;99.90;;;;;;5106557;28;20031;-68
2021/11/22 07:18:54;;;;;;;2.25;1.50;;;-5.20;99.90;;;;;;5098674;28;20537;-68
2021/11/22 07:21:19;;;;;;;1.95;1.48;;;-5.30;99.90;;;;;;5106239;28;20027;-66
2021/11/22 07:23:45;;;;;;;4.03;1.40;;;-5.30;99.90;;;;;;5109747;28;20043;-67
2021/11/22 07:26:11;;;;;;;2.13;1.33;;;-5.30;99.90;;;;;;5101647;28;20553;-67
2021/11/22 07:28:36;;;;;;;10.40;1.67;;;-5.30;99.90;;;;;;5095068;28;20039;-67
2021/11/22 07:31:02;;;;;;;4.70;1.77;;;-5.30;99.90;;;;;;5093971;28;20089;-67
2021/11/22 07:33:28;;;;;;;5.50;1.58;;;-5.20;99.90;;;;;;5094008;28;20492;-66
2021/11/22 07:35:54;;;;;;;4.03;1.52;;;-5.20;99.90;;;;;;5098163;28;20077;-67
2021/11/22 07:38:19;;;;;;;3.88;1.33;;;-5.10;99.90;;;;;;5100328;28;20023;-66
2021/11/22 07:40:45;;;;;;;2.60;1.55;;;-5.10;99.90;;;;;;5113683;28;20100;-69
2021/11/22 07:43:11;;;;;;;6.95;1.52;;;-5.10;99.90;;;;;;5113629;28;20074;-63
2021/11/22 07:45:37;;;;;;;2.20;1.50;;;-5.10;99.90;;;;;;5113877;28;20315;-64
2021/11/22 07:48:03;;;;;;;1.73;1.63;;;-5.00;99.90;;;;;;5107709;28;20027;-65
2021/11/22 07:50:30;;;;;;;3.08;1.50;;;-5.00;99.90;;;;;;5113579;28;20103;-64
2021/11/22 07:52:56;;;;;;;3.83;1.52;;;-5.00;99.90;;;;;;5113644;28;20103;-65
2021/11/22 07:55:23;;;;;;;3.30;1.83;;;-5.00;99.90;;;;;;5113618;28;20019;-64
2021/11/22 07:57:51;;;;;;;1.90;1.48;;;-4.90;99.90;;;;;;5113180;28;20067;-63
2021/11/22 08:00:19;;;;;;;4.30;1.88;;;-4.90;99.90;;;;;;5108698;28;20615;-64
2021/11/22 08:02:44;;;;;;;2.80;1.50;;;-4.90;99.90;;;;;;5113519;28;20028;-65
2021/11/22 08:05:11;;;;;;;12.38;4.28;;;-4.90;99.90;;;;;;5107195;28;20030;-64
2021/11/22 08:07:40;;;;;;;11.18;5.57;;;-4.90;99.90;;;;;;5107261;28;20483;-64
2021/11/22 08:13:02;;;;;;;3.58;1.85;;;-4.90;99.90;;;;;;5110135;28;20096;-64
2021/11/22 08:15:29;;;;;;;4.47;1.50;;;-5.00;99.90;;;;;;5113408;28;20023;-64
2021/11/22 08:17:57;;;;;;;5.57;1.67;;;-4.90;99.90;;;;;;5113452;28;20028;-64
2021/11/22 08:20:23;;;;;;;5.28;2.03;;;-4.90;99.90;;;;;;5113095;28;20032;-65
2021/11/22 08:22:50;;;;;;;5.18;1.90;;;-4.90;99.90;;;;;;5109061;28;20031;-65
2021/11/22 08:25:18;;;;;;;4.10;1.80;;;-4.10;99.90;;;;;;5113339;28;20031;-63
2021/11/22 08:27:45;;;;;;;2.70;1.80;;;-3.10;99.90;;;;;;5103105;28;20028;-63
2021/11/22 08:30:15;;;;;;;3.80;1.83;;;-3.00;99.90;;;;;;5112859;28;20031;-64
2021/11/22 08:32:42;;;;;;;4.80;2.28;;;-3.50;99.90;;;;;;5113133;28;20070;-64
2021/11/22 08:35:08;;;;;;;9.30;2.05;;;-3.90;99.90;;;;;;5108548;28;20051;-64
2021/11/22 08:37:35;;;;;;;3.88;1.70;;;-4.10;99.90;;;;;;5096585;28;20387;-62
2021/11/22 08:40:01;;;;;;;9.82;2.22;;;-4.20;99.90;;;;;;5094290;28;20032;-62
2021/11/22 08:42:27;;;;;;;3.63;1.48;;;-4.30;99.90;;;;;;5092909;28;20028;-63
2021/11/22 08:44:53;;;;;;;6.82;1.90;;;-4.30;99.90;;;;;;5094048;28;20395;-62
2021/11/22 08:47:19;;;;;;;4.70;1.73;;;-4.30;99.90;;;;;;5112614;28;20131;-63
2021/11/22 08:49:45;;;;;;;6.65;1.73;;;-3.40;99.90;;;;;;5100252;28;20020;-64
2021/11/22 08:52:12;;;;;;;5.07;2.47;;;-0.10;99.90;;;;;;5110669;28;20051;-63
2021/11/22 08:54:38;;;;;;;5.05;2.90;;;0.50;99.90;;;;;;5112324;28;20506;-63
2021/11/22 08:57:09;;;;;;;4.68;2.28;;;-0.50;99.90;;;;;;5112467;28;20582;-62
2021/11/22 08:59:35;;;;;;;;;;;-1.40;99.90;;;;;;5113129;28;20073;-62
2021/11/22 09:02:01;;;;;;;6.10;2.20;;;-2.10;99.90;;;;;;5112649;28;20275;-62
2021/11/22 09:04:27;;;;;;;5.10;2.10;;;-2.60;99.90;;;;;;5112614;28;20023;-62
2021/11/22 09:06:53;;;;;;;4.35;1.80;;;-2.90;99.90;;;;;;5112619;28;20421;-62
2021/11/22 09:09:18;;;;;;;1.50;1.30;;;-3.10;99.90;;;;;;5112453;28;20016;-62
2021/11/22 09:11:46;;;;;;;4.78;1.83;;;-3.20;99.90;;;;;;5112358;28;20368;-62
2021/11/22 09:14:13;;;;;;;2.40;1.77;;;-3.40;99.90;;;;;;5112757;28;20171;-62
2021/11/22 09:16:39;;;;;;;5.53;2.33;;;-3.50;99.90;;;;;;5098088;28;20036;-62
2021/11/22 09:19:05;;;;;;;9.35;2.25;;;-3.60;99.90;;;;;;5112239;28;20094;-63
2021/11/22 09:21:31;;;;;;;6.18;2.30;;;-3.60;99.90;;;;;;5111855;28;20110;-63
2021/11/22 09:23:59;;;;;;;4.20;1.80;;;-3.70;99.90;;;;;;5101901;28;20062;-62
2021/11/22 09:26:25;;;;;;;4.05;2.08;;;-3.70;99.90;;;;;;5108115;28;20043;-62
2021/11/22 09:28:51;;;;;;;9.50;2.22;;;-3.70;99.90;;;;;;5112144;28;20041;-62
2021/11/22 09:31:17;;;;;;;4.28;2.30;;;-3.70;99.90;;;;;;5111861;28;20023;-62
2021/11/22 09:33:45;;;;;;;4.97;2.25;;;-3.80;99.90;;;;;;5098249;28;20020;-62
2021/11/22 09:36:12;;;;;;;2.63;1.83;;;-3.80;99.90;;;;;;5112070;28;20020;-62
2021/11/22 09:38:38;;;;;;;3.60;2.00;;;-3.80;99.90;;;;;;5112013;28;20379;-62
2021/11/22 09:41:05;;;;;;;6.95;2.13;;;-3.90;99.90;;;;;;5099680;28;20153;-63
2021/11/22 09:43:30;;;;;;;10.55;2.40;;;-4.00;99.90;;;;;;5108866;28;20052;-62
2021/11/22 09:45:57;;;;;;;5.90;2.35;;;-4.00;99.90;;;;;;5111962;28;20469;-62
2021/11/22 09:48:23;;;;;;;8.95;1.70;;;-4.00;99.90;;;;;;5110954;28;20076;-63
2021/11/22 09:50:49;;;;;;;4.95;2.25;;;-4.00;99.90;;;;;;5098695;28;20379;-62
2021/11/22 09:53:15;;;;;;;4.88;1.52;;;-4.00;99.90;;;;;;5110742;28;20076;-63
2021/11/22 09:55:42;;;;;;;6.90;2.60;;;-2.30;99.90;;;;;;5111748;28;20036;-63
2021/11/22 09:58:10;;;;;;;6.72;3.00;;;-2.40;99.90;;;;;;5100460;28;20028;-63
2021/11/22 10:00:46;;;;;;;9.23;3.45;;;-2.80;99.90;;;;;;5109434;28;20016;-63
2021/11/22 10:03:25;;;;;;;7.95;2.97;;;-3.10;99.90;;;;;;5111836;28;20034;-63
2021/11/22 10:05:59;;;;;;;8.55;2.53;;;-3.30;99.90;;;;;;5114528;28;20031;-62
2021/11/22 10:08:26;;;;;;;10.70;3.25;;;-3.40;99.90;;;;;;5115946;28;20039;-63
2021/11/22 10:10:54;;;;;;;6.68;2.63;;;-3.50;99.90;;;;;;5115589;28;20052;-63
2021/11/22 10:13:42;;;;;;;12.23;2.25;;;-3.70;99.90;;;;;;5115740;28;20019;-63
2021/11/22 10:16:07;;;;;;;7.32;2.28;;;-3.70;99.90;;;;;;5115681;28;20016;-63
2021/11/22 10:18:40;;;;;;;12.23;2.33;;;-3.70;99.90;;;;;;5115831;28;20034;-63
2021/11/22 10:21:11;;;;;;;4.75;2.00;;;-3.70;99.90;;;;;;5115827;28;20024;-63
2021/11/22 10:23:42;;;;;;;5.47;2.10;;;-3.70;99.90;;;;;;5115338;28;20023;-63
2021/11/22 10:26:14;;;;;;;;;;;-3.70;99.90;;;;;;5115864;28;20102;-63
2021/11/22 10:28:46;;;;;;;8.55;2.35;;;-3.70;99.90;;;;;;5101494;28;20053;-63
2021/11/22 10:31:21;;;;;;;8.57;2.42;;;-3.70;99.90;;;;;;5115337;28;20119;-63
2021/11/22 10:33:49;;;;;;;5.72;1.60;;;-3.70;99.90;;;;;;5115226;28;20475;-63
2021/11/22 10:36:18;;;;;;;4.70;2.03;;;-3.70;99.90;;;;;;5115033;28;20498;-63
2021/11/22 10:38:49;;;;;;;5.72;1.92;;;-3.70;99.90;;;;;;5111206;28;20023;-63
2021/11/22 10:41:40;;;;;;;3.33;1.40;;;-3.20;99.90;;;;;;5105730;28;20020;-63
2021/11/22 10:44:10;;;;;;;2.70;1.67;;;-3.00;99.90;;;;;;5101969;28;20050;-63
2021/11/22 10:46:49;;;;;;;4.78;2.25;;;-3.10;99.90;;;;;;5110987;27;20055;-64
2021/11/22 10:49:32;;;;;;;6.10;1.80;;;-3.20;99.90;;;;;;5115087;28;20043;-63
2021/11/22 10:52:10;;;;;;;4.20;1.63;;;-3.30;99.90;;;;;;5112924;28;20413;-63
2021/11/22 10:54:51;;;;;;;3.25;1.55;;;-3.40;99.90;;;;;;5105158;28;20434;-62
2021/11/22 10:57:16;;;;;;;;;;;-3.30;99.90;;;;;;5110375;28;20040;-65
2021/11/22 10:59:42;;;;;;;2.20;1.30;;;-2.20;99.90;;;;;;5105845;28;19999;-62
2021/11/22 11:02:07;;;;;;;4.65;1.80;;;-0.50;99.90;;;;;;5116860;28;20032;-63
2021/11/22 11:04:37;;;;;;;7.10;1.98;;;-1.00;99.90;;;;;;5114712;28;20085;-63
2021/11/22 11:07:09;;;;;;;3.25;1.63;;;-1.50;99.90;;;;;;5104362;28;20630;-63
2021/11/22 11:09:44;;;;;;;6.30;1.92;;;-1.90;99.90;;;;;;5098932;28;20021;-63
2021/11/22 11:12:14;;;;;;;4.50;1.70;;;-2.30;99.90;;;;;;5110138;28;20475;-63
2021/11/22 11:14:43;;;;;;;4.47;1.83;;;-2.50;99.90;;;;;;5114688;28;20032;-63
2021/11/22 11:17:23;;;;;;;3.42;1.73;;;-2.60;99.90;;;;;;5114055;28;20062;-63
2021/11/22 11:19:54;;;;;;;5.03;1.88;;;-2.80;99.90;;;;;;5114617;28;20114;-63
2021/11/22 11:22:21;;;;;;;2.35;2.05;;;-2.80;99.90;;;;;;5114762;28;20031;-63
2021/11/22 11:24:48;;;;;;;6.25;1.80;;;-2.90;99.90;;;;;;5114686;28;20031;-63
2021/11/22 11:27:14;;;;;;;5.13;1.70;;;-2.90;99.90;;;;;;5114429;28;20047;-63
2021/11/22 11:29:41;;;;;;;6.63;1.63;;;-2.90;99.90;;;;;;5105219;28;20016;-63
2021/11/22 11:32:07;;;;;;;8.02;1.80;;;-2.90;99.90;;;;;;5114276;28;20066;-63
2021/11/22 11:34:35;;;;;;;3.97;1.52;;;-3.00;99.90;;;;;;5114120;28;20043;-63
2021/11/22 11:37:30;;;;;;;9.25;1.50;;;-3.00;99.90;;;;;;5099775;28;20467;-63
2021/11/22 11:40:16;;;;;;;5.53;1.40;;;-3.10;99.90;;;;;;5112204;28;20468;-62
2021/11/22 11:43:19;;;;;;;7.05;1.60;;;-3.10;99.90;;;;;;5096760;28;20071;-63
2021/11/22 11:45:54;;;;;;;2.55;1.45;;;-1.30;99.90;;;;;;5101382;28;20119;-64
2021/11/22 11:48:51;;;;;;;6.72;1.50;;;-1.10;99.90;;;;;;5098566;28;20020;-63
2021/11/22 11:51:21;;;;;;;3.55;1.58;;;-1.70;99.90;;;;;;5107765;28;20139;-63
2021/11/22 11:54:05;;;;;;;3.63;1.63;;;-2.00;99.90;;;;;;5110274;28;20472;-63
2021/11/22 11:56:33;;;;;;;1.80;1.30;;;-2.30;99.90;;;;;;5103233;28;20042;-65
2021/11/22 11:59:15;;;;;;;4.35;1.90;;;-2.50;99.90;;;;;;5113838;28;20026;-64
2021/11/22 12:02:05;;;;;;;8.48;2.35;;;-2.60;99.90;;;;;;5113599;28;20483;-63
2021/11/22 12:04:47;;;;;;;6.43;2.08;;;-2.70;99.90;;;;;;5099695;28;20435;-64
2021/11/22 12:07:30;;;;;;;7.65;1.88;;;-2.70;99.90;;;;;;5109379;28;20042;-63
2021/11/22 12:10:11;;;;;;;5.68;1.60;;;-2.70;99.90;;;;;;5102042;28;20039;-63
2021/11/22 12:12:43;;;;;;;2.67;1.73;;;-2.60;99.90;;;;;;5112067;28;20433;-63
2021/11/22 12:15:11;;;;;;;3.10;1.77;;;-2.70;99.90;;;;;;5113525;28;20565;-63
2021/11/22 12:17:37;;;;;;;3.45;1.65;;;-2.70;99.90;;;;;;5113305;28;20095;-63
2021/11/22 12:20:30;;;;;;;3.25;1.70;;;-2.40;99.90;;;;;;5113583;28;20115;-63
2021/11/22 12:23:05;;;;;;;2.47;1.30;;;-2.10;99.90;;;;;;5113150;28;20044;-63
2021/11/22 12:25:42;;;;;;;2.63;1.30;;;-2.30;99.90;;;;;;5113547;28;20023;-63
2021/11/22 12:28:19;;;;;;;3.97;1.63;;;-2.40;99.90;;;;;;5113277;28;20364;-63
2021/11/22 12:31:03;;;;;;;2.42;1.60;;;-2.50;99.90;;;;;;5113146;28;20599;-63
2021/11/22 12:33:30;;;;;;;2.58;1.55;;;-2.60;99.90;;;;;;5113049;28;20023;-63
2021/11/22 12:36:00;;;;;;;6.72;2.25;;;-2.60;99.90;;;;;;5111784;28;20487;-63
2021/11/22 12:38:46;;;;;;;3.20;1.77;;;-2.50;99.90;;;;;;5113095;28;20532;-64
2021/11/22 12:41:24;;;;;;;3.55;1.83;;;-2.50;99.90;;;;;;5113249;28;20394;-64
2021/11/22 12:43:59;;;;;;;2.47;1.40;;;-2.50;99.90;;;;;;5102710;28;20030;-64
2021/11/22 12:46:49;;;;;;;2.40;0.90;;;-2.50;99.90;;;;;;5112906;27;20483;-66
2021/11/22 12:49:28;;;;;;;5.47;2.13;;;-1.90;99.90;;;;;;5093985;28;20387;-64
2021/11/22 12:51:54;;;;;;;3.95;1.58;;;0.10;99.90;;;;;;5094485;28;20077;-64
2021/11/22 12:54:21;;;;;;;3.22;1.60;;;-0.20;99.90;;;;;;5093459;28;20020;-64
2021/11/22 12:56:48;;;;;;;5.43;1.52;;;-0.60;99.90;;;;;;5094355;28;20097;-64
2021/11/22 12:59:16;;;;;;;2.13;1.25;;;-1.00;99.90;;;;;;5112562;28;20015;-64
2021/11/22 13:01:43;;;;;;;6.63;1.60;;;-1.20;99.90;;;;;;5112446;28;20183;-64
2021/11/22 13:04:09;;;;;;;1.95;1.40;;;-1.40;99.90;;;;;;5111360;28;20016;-64
2021/11/22 13:06:39;;;;;;;2.20;1.30;;;-1.50;99.90;;;;;;5112316;28;20027;-64
2021/11/22 13:09:10;;;;;;;5.15;1.60;;;-1.60;99.90;;;;;;5112314;28;20024;-64
2021/11/22 13:11:46;;;;;;;2.75;1.20;;;-1.40;99.90;;;;;;5095322;28;20107;-64
2021/11/22 13:14:16;;;;;;;4.45;1.73;;;-1.20;99.90;;;;;;5105904;28;20024;-64
2021/11/22 13:16:43;;;;;;;8.90;2.95;;;-1.30;99.90;;;;;;5098963;28;20372;-64
2021/11/22 13:19:11;;;;;;;8.07;2.40;;;-1.40;99.90;;;;;;5112556;28;20398;-64
2021/11/22 13:21:40;;;;;;;5.53;2.10;;;-1.30;99.90;;;;;;5098571;28;20375;-62
2021/11/22 13:24:11;;;;;;;2.33;1.88;;;-1.10;99.90;;;;;;5112217;28;20020;-62
2021/11/22 13:26:38;;;;;;;6.80;1.95;;;-1.20;99.90;;;;;;5112130;28;20471;-62